Weather reports worldwide

Advertisment
Reggio Calabria, Italy (16422): temperature & dewpoint: 17.10.2019 05:00:00 - 23.10.2019 05:00:00 (CEST)Reggio Calabria, Italy (16422): wind speed: 17.10.2019 05:00:00 - 23.10.2019 05:00:00 (CEST)Reggio Calabria, Italy (16422): wind direction: 17.10.2019 05:00:00 - 23.10.2019 05:00:00 (CEST)Reggio Calabria, Italy (16422): visibility: 17.10.2019 05:00:00 - 23.10.2019 05:00:00 (CEST)
Date & Time tt [°C] td [°C] ff [km/h] ff [kn] dd vv [km]
23.10.2019 05:00:00 - - - - - -
23.10.2019 04:00:00 - - - - - -
23.10.2019 03:00:00 - - - - - -
23.10.2019 02:00:00 - - - - - -
23.10.2019 01:00:00 - - - - - -
23.10.2019 00:00:00 21,0 16,0 9 5 E 10
22.10.2019 23:00:00 21,0 17,0 11 6 ESE 10
22.10.2019 22:00:00 21,0 17,0 9 5 ESE 10
22.10.2019 21:00:00 20,0 16,0 9 5 ESE 10
22.10.2019 20:00:00 22,0 18,0 11 6 S 10
22.10.2019 19:00:00 22,0 18,0 13 7 S 10
22.10.2019 18:00:00 23,0 18,0 11 6 S 10
22.10.2019 17:00:00 24,0 18,0 15 8 SW 10
22.10.2019 16:00:00 24,0 18,0 16 9 SW 10
22.10.2019 15:00:00 25,0 18,0 16 9 SSW 10
22.10.2019 14:00:00 25,0 18,0 18 10 SW 10
22.10.2019 13:00:00 26,0 18,0 21 11 SW 10
22.10.2019 12:00:00 25,0 18,0 21 11 SW 10
22.10.2019 11:00:00 25,0 18,0 15 8 SW 10
22.10.2019 10:00:00 23,0 18,0 16 9 S 10
22.10.2019 09:00:00 23,0 16,0 4 2 - 10
22.10.2019 08:00:00 19,0 16,0 8 4 E 10
22.10.2019 07:00:00 18,0 15,0 5 3 E 10
22.10.2019 06:00:00 19,0 15,0 4 2 - 10
22.10.2019 05:00:00 - - - - - -
22.10.2019 04:00:00 - - - - - -
22.10.2019 03:00:00 - - - - - -
22.10.2019 02:00:00 - - - - - -
22.10.2019 01:00:00 - - - - - -
22.10.2019 00:00:00 18,0 14,0 11 6 NE 10
21.10.2019 23:00:00 18,0 15,0 9 5 NE 10
21.10.2019 22:00:00 19,0 17,0 9 5 NE 10
21.10.2019 21:00:00 19,0 17,0 9 5 NE 10
21.10.2019 20:00:00 21,0 18,0 5 3 ESE 10
21.10.2019 19:00:00 22,0 19,0 8 4 S 10
21.10.2019 18:00:00 23,0 19,0 9 5 S 10
21.10.2019 17:00:00 24,0 19,0 13 7 SSW 10
21.10.2019 16:00:00 25,0 20,0 18 10 SSW 10
21.10.2019 15:00:00 25,0 20,0 21 11 SSW 10
21.10.2019 14:00:00 26,0 20,0 24 13 SSW 10
21.10.2019 13:00:00 25,0 19,0 26 14 SSW 10
21.10.2019 12:00:00 25,0 20,0 24 13 SSW 10
21.10.2019 11:00:00 25,0 18,0 16 9 SSW 10
21.10.2019 10:00:00 25,0 18,0 4 2 - 10
21.10.2019 09:00:00 23,0 17,0 2 1 - 10
21.10.2019 08:00:00 18,0 14,0 11 6 NE 10
21.10.2019 07:00:00 18,0 14,0 9 5 NE 10
21.10.2019 06:00:00 18,0 14,0 9 5 ENE 10
21.10.2019 05:00:00 - - - - - -
21.10.2019 04:00:00 - - - - - -
21.10.2019 03:00:00 - - - - - -
21.10.2019 02:00:00 - - - - - -
21.10.2019 01:00:00 - - - - - -
21.10.2019 00:00:00 20,0 17,0 8 4 ESE 10
20.10.2019 23:00:00 21,0 17,0 8 4 ESE 10
20.10.2019 22:00:00 21,0 18,0 4 2 E 10
20.10.2019 21:00:00 - - - - - -
20.10.2019 20:00:00 22,0 19,0 11 6 S 10
20.10.2019 19:00:00 22,0 18,0 16 9 S 10
20.10.2019 18:00:00 23,0 19,0 16 9 S 10
20.10.2019 17:00:00 24,0 19,0 16 9 SSW 10
20.10.2019 16:00:00 24,0 19,0 13 7 SW 10
20.10.2019 15:00:00 25,0 19,0 15 8 SSW 10
20.10.2019 14:00:00 25,0 20,0 15 8 SSW 10
20.10.2019 13:00:00 25,0 19,0 13 7 SSW 10
20.10.2019 12:00:00 25,0 19,0 11 6 SSW 10
20.10.2019 11:00:00 25,0 19,0 11 6 WSW 10
20.10.2019 10:00:00 23,0 18,0 4 2 - 10
20.10.2019 09:00:00 23,0 17,0 4 2 - 10
20.10.2019 08:00:00 18,0 16,0 5 3 ENE 10
20.10.2019 07:00:00 18,0 15,0 5 3 E 10
20.10.2019 06:00:00 18,0 16,0 5 3 E 10
20.10.2019 05:00:00 - - - - - -
20.10.2019 04:00:00 - - - - - -
20.10.2019 03:00:00 - - - - - -
20.10.2019 02:00:00 - - - - - -
20.10.2019 01:00:00 - - - - - -
20.10.2019 00:00:00 20,0 17,0 8 4 E 10
19.10.2019 23:00:00 21,0 17,0 9 5 ESE 10
19.10.2019 22:00:00 21,0 17,0 4 2 E 10
19.10.2019 21:00:00 21,0 17,0 5 3 E 10
19.10.2019 20:00:00 21,0 18,0 8 4 SE 10
19.10.2019 19:00:00 22,0 19,0 9 5 S 10
19.10.2019 18:00:00 22,0 18,0 13 7 S 10
19.10.2019 17:00:00 24,0 18,0 15 8 SSW 10
19.10.2019 16:00:00 24,0 18,0 15 8 SSW 10
19.10.2019 15:00:00 25,0 18,0 13 7 SSW 10
19.10.2019 14:00:00 24,0 17,0 18 10 SSW 10
19.10.2019 13:00:00 25,0 18,0 18 10 SSW 10
19.10.2019 12:00:00 24,0 18,0 21 11 SW 10
19.10.2019 11:00:00 24,0 17,0 15 8 SW 10
19.10.2019 10:00:00 22,0 14,0 5 3 W 10
19.10.2019 09:00:00 21,0 12,0 4 2 E 10
19.10.2019 08:00:00 19,0 10,0 9 5 ENE 10
19.10.2019 07:00:00 18,0 11,0 8 4 ENE 10
19.10.2019 06:00:00 - - - - - -
19.10.2019 05:00:00 17,0 11,0 9 5 ENE 10
19.10.2019 04:00:00 - - - - - -
19.10.2019 03:00:00 - - - - - -
19.10.2019 02:00:00 - - - - - -
19.10.2019 01:00:00 - - - - - -
19.10.2019 00:00:00 18,0 12,0 8 4 E 10
18.10.2019 23:00:00 18,0 12,0 8 4 ENE 10
18.10.2019 22:00:00 19,0 12,0 5 3 ENE 10
18.10.2019 21:00:00 20,0 13,0 5 3 E 10
18.10.2019 20:00:00 20,0 14,0 9 5 ESE 10
18.10.2019 19:00:00 21,0 14,0 9 5 SSE 10
18.10.2019 18:00:00 23,0 13,0 9 5 - 10
18.10.2019 17:00:00 24,0 12,0 15 8 N 10
18.10.2019 16:00:00 24,0 13,0 18 10 NNW 10
18.10.2019 15:00:00 25,0 12,0 18 10 N 10
18.10.2019 14:00:00 25,0 13,0 21 11 N 10
18.10.2019 13:00:00 24,0 13,0 18 10 NNW 10
18.10.2019 12:00:00 24,0 13,0 18 10 NNW 10
18.10.2019 11:00:00 23,0 13,0 15 8 NNW 10
18.10.2019 10:00:00 22,0 12,0 11 6 N 10
18.10.2019 09:00:00 20,0 10,0 5 3 NE 10
18.10.2019 08:00:00 17,0 11,0 8 4 NNE 10
18.10.2019 07:00:00 16,0 11,0 13 7 NE 10
18.10.2019 06:00:00 16,0 11,0 11 6 NE 10
18.10.2019 05:00:00 - - - - - -
18.10.2019 04:00:00 - - - - - -
18.10.2019 03:00:00 - - - - - -
18.10.2019 02:00:00 - - - - - -
18.10.2019 01:00:00 - - - - - -
18.10.2019 00:00:00 18,0 9,0 11 6 NNE 10
17.10.2019 23:00:00 18,0 10,0 11 6 NE 10
17.10.2019 22:00:00 16,0 10,0 9 5 NE 10
17.10.2019 21:00:00 18,0 10,0 9 5 NE 10
17.10.2019 20:00:00 20,0 11,0 11 6 N 10
17.10.2019 19:00:00 21,0 11,0 15 8 N 10
17.10.2019 18:00:00 22,0 12,0 21 11 N 10
17.10.2019 17:00:00 23,0 11,0 22 12 N 10
17.10.2019 16:00:00 24,0 11,0 22 12 N 10
17.10.2019 15:00:00 24,0 12,0 24 13 N 10
17.10.2019 14:00:00 25,0 13,0 24 13 N 10
17.10.2019 13:00:00 24,0 13,0 24 13 N 10
17.10.2019 12:00:00 24,0 14,0 28 15 NNW 10
17.10.2019 11:00:00 23,0 15,0 21 11 NNW 10
17.10.2019 10:00:00 22,0 14,0 16 9 N 10
17.10.2019 09:00:00 22,0 13,0 13 7 N 10
17.10.2019 08:00:00 18,0 13,0 11 6 NE 10
17.10.2019 07:00:00 18,0 13,0 11 6 NNE 10
17.10.2019 06:00:00 18,0 13,0 11 6 NE 10
17.10.2019 05:00:00 - - - - - -

tt = temperature
td = dewpoint
ff = wind speed
dd = wind direction
vv = visibility

Next stations